createdAt,value
2022-11-29T00:01:03.854Z,66.65
2022-11-29T00:03:30.698Z,66.26
2022-11-29T00:06:03.395Z,66.41
2022-11-29T00:08:29.715Z,66.66
2022-11-29T00:10:56.034Z,66.52
2022-11-29T00:13:22.348Z,66.65
2022-11-29T00:15:48.737Z,66.21
2022-11-29T00:18:15.109Z,66.54
2022-11-29T00:20:41.461Z,66.59
2022-11-29T00:23:07.820Z,66.75
2022-11-29T00:25:34.181Z,66.39
2022-11-29T00:28:00.522Z,66.67
2022-11-29T00:30:27.758Z,66.28
2022-11-29T00:32:54.105Z,66.44
2022-11-29T00:35:20.577Z,66.33
2022-11-29T00:37:46.898Z,66.41
2022-11-29T00:40:13.288Z,66.64
2022-11-29T00:42:39.773Z,66.60
2022-11-29T00:45:06.705Z,66.53
2022-11-29T00:47:33.027Z,66.62
2022-11-29T00:49:59.379Z,66.27
2022-11-29T00:52:25.700Z,66.53
2022-11-29T00:54:52.045Z,66.49
2022-11-29T00:57:18.352Z,66.70
2022-11-29T00:59:44.695Z,66.50
2022-11-29T01:02:11.116Z,66.61
2022-11-29T01:04:37.519Z,66.84
2022-11-29T01:07:03.852Z,66.21
2022-11-29T01:09:30.233Z,66.41
2022-11-29T01:11:56.638Z,66.53
2022-11-29T01:14:23.130Z,66.86
2022-11-29T01:16:49.573Z,66.35
2022-11-29T01:19:15.922Z,66.50
2022-11-29T01:21:42.369Z,66.51
2022-11-29T01:24:08.830Z,66.57
2022-11-29T01:26:35.238Z,66.67
2022-11-29T01:29:01.580Z,66.41
2022-11-29T01:31:36.056Z,66.41
2022-11-29T01:34:04.577Z,66.56
2022-11-29T01:36:31.238Z,66.70
2022-11-29T01:39:01.864Z,66.44
2022-11-29T01:41:31.525Z,66.61
2022-11-29T01:43:59.770Z,66.59
2022-11-29T01:46:28.161Z,66.98
2022-11-29T01:49:00.297Z,66.80
2022-11-29T01:51:28.243Z,67.03
2022-11-29T01:53:55.194Z,66.79
2022-11-29T01:56:22.278Z,66.64
2022-11-29T01:58:48.639Z,66.75
2022-11-29T02:01:15.125Z,66.92
2022-11-29T02:03:41.568Z,66.79
2022-11-29T02:06:08.549Z,67.10
2022-11-29T02:08:41.053Z,67.19
2022-11-29T02:11:26.150Z,67.10
2022-11-29T02:14:30.290Z,66.86
2022-11-29T02:17:15.249Z,67.08
2022-11-29T02:20:11.498Z,66.84
2022-11-29T02:22:49.444Z,66.96
2022-11-29T02:25:43.668Z,66.93
2022-11-29T02:28:25.825Z,66.91
2022-11-29T02:31:10.829Z,67.11
2022-11-29T02:34:08.333Z,67.17
2022-11-29T02:36:56.066Z,67.14
2022-11-29T02:39:36.770Z,66.97
2022-11-29T02:42:56.964Z,67.17
2022-11-29T02:45:38.487Z,67.12
2022-11-29T02:48:23.180Z,67.12
2022-11-29T02:51:00.746Z,67.28
2022-11-29T02:53:37.036Z,67.19
2022-11-29T02:56:26.412Z,67.36
2022-11-29T02:59:04.189Z,67.42
2022-11-29T03:02:08.394Z,67.25
2022-11-29T03:04:57.813Z,67.27
2022-11-29T03:08:23.453Z,67.32
2022-11-29T03:10:49.812Z,67.72
2022-11-29T03:13:50.485Z,67.36
2022-11-29T03:16:51.013Z,67.38
2022-11-29T03:19:29.499Z,67.26
2022-11-29T03:22:29.366Z,67.50
2022-11-29T03:25:10.477Z,67.28
2022-11-29T03:28:06.391Z,67.39
2022-11-29T03:30:38.050Z,67.34
2022-11-29T03:33:40.073Z,67.96
2022-11-29T03:36:18.766Z,67.60
2022-11-29T03:38:47.009Z,67.52
2022-11-29T03:41:43.773Z,67.74
2022-11-29T03:44:13.193Z,67.80
2022-11-29T03:47:02.082Z,67.47
2022-11-29T03:49:47.437Z,67.80
2022-11-29T03:52:24.651Z,67.87
2022-11-29T03:55:10.315Z,67.57
2022-11-29T03:57:50.441Z,67.59
2022-11-29T04:00:18.534Z,67.65
2022-11-29T04:03:24.556Z,67.84
2022-11-29T04:06:18.946Z,67.53
2022-11-29T04:09:07.070Z,67.54
2022-11-29T04:12:01.386Z,67.66
2022-11-29T04:14:30.931Z,68.01
2022-11-29T04:16:57.169Z,67.77
2022-11-29T04:19:32.820Z,67.95
2022-11-29T04:22:28.523Z,67.68
2022-11-29T04:24:59.229Z,67.72
2022-11-29T04:27:51.642Z,67.73
2022-11-29T04:30:25.510Z,67.56
2022-11-29T04:33:36.280Z,67.73
2022-11-29T04:36:13.841Z,67.65
2022-11-29T04:38:40.160Z,67.89
2022-11-29T04:41:41.469Z,67.45
2022-11-29T04:44:19.750Z,67.67
2022-11-29T04:46:52.215Z,67.47
2022-11-29T04:49:36.126Z,67.74
2022-11-29T04:52:29.887Z,67.77
2022-11-29T04:55:26.166Z,67.63
2022-11-29T04:58:19.164Z,67.62
2022-11-29T05:01:00.420Z,67.63
2022-11-29T05:03:38.577Z,67.54
2022-11-29T05:06:25.090Z,67.64
2022-11-29T05:09:15.300Z,67.71
2022-11-29T05:12:21.499Z,67.84
2022-11-29T05:15:00.054Z,67.87
2022-11-29T05:17:45.228Z,67.74
2022-11-29T05:20:30.277Z,67.91
2022-11-29T05:23:10.984Z,68.00
2022-11-29T05:25:49.310Z,68.16
2022-11-29T05:28:24.306Z,68.13
2022-11-29T05:31:18.228Z,68.05
2022-11-29T05:34:11.616Z,68.22
2022-11-29T05:37:05.246Z,68.10
2022-11-29T05:39:55.915Z,68.12
2022-11-29T05:42:42.527Z,68.20
2022-11-29T05:45:19.684Z,68.32
2022-11-29T05:48:25.026Z,67.88
2022-11-29T05:51:18.533Z,67.72
2022-11-29T05:53:44.828Z,67.90
2022-11-29T05:56:40.161Z,67.91
2022-11-29T05:59:13.961Z,68.01
2022-11-29T06:01:55.801Z,68.00
2022-11-29T06:04:46.652Z,67.92
2022-11-29T06:07:22.500Z,67.79
2022-11-29T06:10:04.013Z,68.17
2022-11-29T06:12:35.787Z,68.12
2022-11-29T06:15:37.478Z,68.10
2022-11-29T06:18:37.797Z,68.04
2022-11-29T06:21:28.651Z,67.85
2022-11-29T06:24:09.000Z,67.93
2022-11-29T06:27:14.018Z,67.91
2022-11-29T06:30:07.896Z,67.81
2022-11-29T06:32:44.501Z,68.04
2022-11-29T06:35:37.926Z,67.85
2022-11-29T06:38:13.887Z,68.07
2022-11-29T06:40:40.313Z,67.89
2022-11-29T06:43:06.634Z,67.88
2022-11-29T06:45:33.137Z,67.63
2022-11-29T06:48:03.644Z,67.54
2022-11-29T06:50:43.745Z,66.89
2022-11-29T06:53:30.776Z,67.48
2022-11-29T06:56:16.489Z,67.63
2022-11-29T06:58:55.750Z,67.90
2022-11-29T07:01:30.977Z,67.91
2022-11-29T07:04:06.355Z,67.81
2022-11-29T07:06:34.912Z,67.81
2022-11-29T07:09:08.635Z,67.96
2022-11-29T07:11:35.310Z,68.15
2022-11-29T07:14:01.948Z,68.03
2022-11-29T07:16:36.773Z,67.96
2022-11-29T07:19:24.731Z,68.14
2022-11-29T07:21:57.021Z,68.06
2022-11-29T07:24:48.249Z,67.91
2022-11-29T07:27:20.302Z,67.50
2022-11-29T07:30:11.826Z,67.89
2022-11-29T07:33:16.614Z,67.80
2022-11-29T07:36:18.240Z,67.83
2022-11-29T07:39:32.003Z,67.70
2022-11-29T07:42:20.028Z,67.71
2022-11-29T07:45:03.683Z,67.54
2022-11-29T07:47:35.287Z,67.93
2022-11-29T07:50:02.197Z,68.37
2022-11-29T07:52:28.676Z,68.15
2022-11-29T07:54:55.705Z,68.13
2022-11-29T07:57:22.602Z,68.18
2022-11-29T07:59:49.149Z,67.99
2022-11-29T08:02:26.378Z,68.23
2022-11-29T08:04:52.794Z,68.14
2022-11-29T08:07:19.140Z,67.92
2022-11-29T08:09:45.740Z,68.18
2022-11-29T08:12:12.463Z,68.08
2022-11-29T08:14:38.812Z,68.04
2022-11-29T08:17:05.130Z,68.16
2022-11-29T08:19:31.627Z,68.27
2022-11-29T08:21:57.993Z,68.16
2022-11-29T08:24:24.342Z,68.24
2022-11-29T08:26:50.660Z,68.05
2022-11-29T08:29:16.987Z,67.96
2022-11-29T08:31:43.567Z,68.09
2022-11-29T08:34:10.636Z,68.03
2022-11-29T08:36:37.491Z,67.77
2022-11-29T08:39:09.221Z,67.97
2022-11-29T08:41:36.392Z,67.74
2022-11-29T08:44:04.859Z,67.80
2022-11-29T08:46:50.312Z,67.80
2022-11-29T08:49:16.936Z,67.72
2022-11-29T08:51:43.260Z,67.51
2022-11-29T08:54:10.153Z,67.76
2022-11-29T08:59:23.881Z,67.72
2022-11-29T09:01:50.303Z,67.46
2022-11-29T09:04:17.031Z,67.53
2022-11-29T09:06:44.342Z,67.53
2022-11-29T09:09:10.670Z,67.55
2022-11-29T09:11:37.135Z,67.55
2022-11-29T09:14:07.090Z,67.69
2022-11-29T09:16:36.477Z,67.60
2022-11-29T09:19:04.270Z,67.59
2022-11-29T09:21:32.689Z,67.63
2022-11-29T09:24:01.023Z,68.03
2022-11-29T09:26:30.929Z,67.91
2022-11-29T09:29:02.707Z,67.68
2022-11-29T09:31:31.098Z,67.79
2022-11-29T09:33:57.935Z,67.86
2022-11-29T09:36:28.580Z,68.37
2022-11-29T09:38:56.266Z,67.85
2022-11-29T09:41:45.637Z,67.80
2022-11-29T09:44:29.959Z,67.84
2022-11-29T09:47:00.272Z,67.86
2022-11-29T09:49:42.225Z,67.94
2022-11-29T09:52:26.749Z,68.08
2022-11-29T09:55:24.454Z,67.98
2022-11-29T09:57:53.596Z,68.01
2022-11-29T10:00:20.614Z,68.09
2022-11-29T10:03:01.902Z,68.19
2022-11-29T10:05:38.677Z,68.22
2022-11-29T10:08:14.182Z,68.21
2022-11-29T10:10:46.193Z,68.17
2022-11-29T10:13:34.209Z,68.06
2022-11-29T10:16:15.826Z,67.81
2022-11-29T10:18:55.790Z,67.85
2022-11-29T10:21:28.458Z,67.82
2022-11-29T10:23:59.270Z,67.60
2022-11-29T10:26:30.601Z,68.03
2022-11-29T10:29:00.023Z,67.79
2022-11-29T10:31:28.545Z,67.78
2022-11-29T10:33:56.375Z,67.96
2022-11-29T10:36:33.246Z,67.84
2022-11-29T10:39:09.956Z,67.54
2022-11-29T10:41:39.383Z,67.86
2022-11-29T10:44:05.863Z,67.91
2022-11-29T10:46:34.831Z,68.03
2022-11-29T10:49:06.830Z,68.12
2022-11-29T10:51:34.720Z,68.11
2022-11-29T10:54:16.758Z,67.87
2022-11-29T10:56:44.436Z,68.07
2022-11-29T10:59:23.611Z,67.83
2022-11-29T11:01:50.976Z,67.90
2022-11-29T11:04:31.886Z,67.93
2022-11-29T11:07:01.350Z,68.08
2022-11-29T11:09:40.337Z,68.10
2022-11-29T11:12:16.802Z,68.02
2022-11-29T11:14:44.608Z,67.97
2022-11-29T11:17:26.089Z,67.77
2022-11-29T11:20:02.020Z,67.69
2022-11-29T11:22:29.778Z,67.62
2022-11-29T11:25:03.688Z,67.69
2022-11-29T11:27:41.521Z,67.48
2022-11-29T11:30:22.379Z,67.46
2022-11-29T11:33:09.285Z,67.49
2022-11-29T11:35:37.141Z,67.43
2022-11-29T11:38:03.614Z,67.56
2022-11-29T11:40:30.933Z,67.76
2022-11-29T11:43:00.507Z,67.99
2022-11-29T11:45:33.001Z,67.89
2022-11-29T11:48:11.821Z,67.83
2022-11-29T11:50:44.888Z,68.09
2022-11-29T11:53:36.954Z,68.13
2022-11-29T11:56:12.413Z,67.99
2022-11-29T11:58:56.747Z,68.18
2022-11-29T12:01:30.980Z,67.99
2022-11-29T12:04:12.411Z,67.88
2022-11-29T12:06:38.709Z,68.32
2022-11-29T12:09:08.320Z,67.77
2022-11-29T12:11:51.238Z,67.88
2022-11-29T12:14:28.946Z,67.95
2022-11-29T12:17:05.078Z,67.64
2022-11-29T12:19:39.471Z,67.30
2022-11-29T12:22:13.245Z,67.58
2022-11-29T12:24:50.425Z,67.45
2022-11-29T12:27:16.859Z,67.32
2022-11-29T12:29:43.224Z,67.33
2022-11-29T12:32:40.210Z,67.56
2022-11-29T12:35:35.932Z,67.54
2022-11-29T12:38:27.129Z,67.49
2022-11-29T12:40:57.507Z,67.43
2022-11-29T12:43:58.158Z,67.44
2022-11-29T12:46:27.293Z,67.54
2022-11-29T12:49:21.369Z,67.54
2022-11-29T12:52:09.417Z,67.62
2022-11-29T12:54:43.597Z,67.63
2022-11-29T12:57:44.938Z,67.71
2022-11-29T13:00:21.116Z,67.67
2022-11-29T13:02:56.587Z,67.72
2022-11-29T13:05:33.609Z,67.65
2022-11-29T13:08:22.715Z,67.97
2022-11-29T13:11:03.979Z,67.37
2022-11-29T13:13:40.926Z,67.88
2022-11-29T13:16:33.833Z,67.75
2022-11-29T13:19:05.057Z,67.73
2022-11-29T13:21:47.497Z,67.80
2022-11-29T13:24:38.373Z,67.67
2022-11-29T13:27:16.034Z,67.87
2022-11-29T13:29:42.918Z,68.05
2022-11-29T13:32:32.762Z,67.85
2022-11-29T13:35:14.252Z,67.72
2022-11-29T13:37:50.593Z,67.73
2022-11-29T13:40:44.019Z,67.77
2022-11-29T13:43:30.885Z,67.90
2022-11-29T13:46:18.950Z,67.42
2022-11-29T13:48:57.644Z,67.86
2022-11-29T13:51:31.048Z,67.78
2022-11-29T13:54:01.042Z,67.60
2022-11-29T13:56:46.538Z,67.48
2022-11-29T13:59:41.584Z,67.46
2022-11-29T14:02:32.370Z,67.33
2022-11-29T14:04:58.896Z,67.25
2022-11-29T14:07:25.364Z,67.53
2022-11-29T14:10:03.081Z,67.57
2022-11-29T14:12:53.357Z,67.49
2022-11-29T14:15:29.187Z,67.59
2022-11-29T14:17:58.740Z,67.42
2022-11-29T14:20:25.217Z,67.51
2022-11-29T14:23:06.698Z,67.43
2022-11-29T14:25:54.977Z,67.09
2022-11-29T14:28:21.304Z,67.22
2022-11-29T14:30:47.618Z,67.17
2022-11-29T14:33:35.996Z,67.22
2022-11-29T14:36:14.633Z,67.22
2022-11-29T14:39:08.443Z,67.30
2022-11-29T14:42:04.886Z,67.48
2022-11-29T14:44:32.937Z,67.40
2022-11-29T14:47:03.013Z,67.38
2022-11-29T14:49:31.368Z,67.51
2022-11-29T14:52:08.732Z,67.50
2022-11-29T14:54:36.960Z,67.57
2022-11-29T14:57:51.134Z,67.60
2022-11-29T15:00:18.863Z,67.40
2022-11-29T15:02:55.256Z,67.54
2022-11-29T15:05:30.832Z,67.66
2022-11-29T15:08:32.231Z,67.59
2022-11-29T15:11:14.644Z,67.45
2022-11-29T15:14:03.798Z,67.72
2022-11-29T15:16:50.780Z,67.63
2022-11-29T15:19:42.109Z,67.66
2022-11-29T15:22:17.934Z,67.46
2022-11-29T15:24:55.522Z,67.48
2022-11-29T15:27:22.662Z,67.67
2022-11-29T15:29:49.119Z,67.50
2022-11-29T15:32:20.910Z,67.54
2022-11-29T15:34:50.393Z,67.66
2022-11-29T15:37:39.533Z,67.78
2022-11-29T15:40:12.162Z,67.67
2022-11-29T15:42:50.612Z,67.57
2022-11-29T15:45:38.352Z,67.61
2022-11-29T15:48:33.835Z,67.69
2022-11-29T15:51:15.566Z,67.75
2022-11-29T15:53:47.451Z,67.85
2022-11-29T15:56:24.653Z,67.51
2022-11-29T15:58:55.440Z,67.88
2022-11-29T16:01:22.082Z,67.98
2022-11-29T16:03:52.770Z,67.72
2022-11-29T16:06:44.224Z,67.77
2022-11-29T16:09:17.615Z,67.57
2022-11-29T16:11:45.909Z,67.86
2022-11-29T16:14:23.592Z,67.78
2022-11-29T16:16:54.935Z,68.00
2022-11-29T16:19:36.146Z,67.86
2022-11-29T16:22:02.376Z,68.06
2022-11-29T16:24:28.948Z,68.16
2022-11-29T16:26:55.957Z,68.10
2022-11-29T16:29:35.734Z,68.00
2022-11-29T16:32:31.569Z,68.09
2022-11-29T16:35:07.041Z,68.04
2022-11-29T16:37:40.311Z,68.05
2022-11-29T16:40:19.922Z,68.06
2022-11-29T16:43:06.570Z,67.92
2022-11-29T16:45:41.132Z,68.14
2022-11-29T16:48:23.126Z,68.30
2022-11-29T16:51:13.191Z,68.37
2022-11-29T16:53:47.710Z,68.46
2022-11-29T16:56:16.524Z,68.50
2022-11-29T16:59:24.894Z,68.36
2022-11-29T17:01:32.248Z,68.55
2022-11-29T17:04:00.032Z,68.79
2022-11-29T17:06:28.496Z,69.00
2022-11-29T17:08:56.771Z,68.52
2022-11-29T17:11:23.318Z,68.61
2022-11-29T17:13:50.192Z,68.52
2022-11-29T17:16:19.513Z,68.64
2022-11-29T17:18:45.942Z,68.58
2022-11-29T17:21:32.624Z,68.66
2022-11-29T17:23:58.942Z,68.44
2022-11-29T17:26:25.461Z,68.67
2022-11-29T17:28:52.149Z,68.99
2022-11-29T17:31:21.140Z,68.65
2022-11-29T17:33:47.861Z,68.91
2022-11-29T17:36:16.599Z,69.00
2022-11-29T17:38:44.374Z,69.04
2022-11-29T17:41:17.048Z,68.89
2022-11-29T17:43:43.710Z,68.91
2022-11-29T17:46:12.225Z,69.03
2022-11-29T17:48:38.981Z,69.06
2022-11-29T17:51:22.810Z,69.10
2022-11-29T17:53:53.762Z,68.95
2022-11-29T17:56:23.059Z,68.88
2022-11-29T17:58:54.306Z,68.86
2022-11-29T18:01:23.584Z,68.80
2022-11-29T18:03:52.798Z,69.05
2022-11-29T18:06:22.362Z,68.96
2022-11-29T18:08:54.721Z,68.94
2022-11-29T18:11:30.964Z,68.67
2022-11-29T18:13:58.335Z,68.73
2022-11-29T18:16:30.518Z,68.92
2022-11-29T18:19:00.663Z,68.85
2022-11-29T18:21:27.795Z,68.74
2022-11-29T18:23:54.660Z,68.49
2022-11-29T18:26:23.833Z,68.70
2022-11-29T18:28:50.852Z,68.50
2022-11-29T18:31:19.654Z,68.43
2022-11-29T18:33:48.682Z,68.65
2022-11-29T18:36:21.045Z,68.52
2022-11-29T18:38:48.476Z,68.29
2022-11-29T18:41:20.697Z,68.38
2022-11-29T18:43:48.365Z,68.27
2022-11-29T18:46:19.431Z,68.23
2022-11-29T18:48:47.550Z,68.20
2022-11-29T18:51:15.905Z,68.09
2022-11-29T18:53:43.118Z,67.94
2022-11-29T18:56:18.584Z,67.99
2022-11-29T18:58:47.653Z,68.02
2022-11-29T19:01:16.586Z,67.96
2022-11-29T19:03:45.273Z,67.91
2022-11-29T19:06:16.508Z,67.54
2022-11-29T19:08:44.026Z,67.70
2022-11-29T19:11:15.909Z,67.70
2022-11-29T19:13:42.569Z,67.87
2022-11-29T19:16:13.565Z,67.86
2022-11-29T19:18:40.072Z,67.85
2022-11-29T19:21:11.892Z,67.39
2022-11-29T19:23:38.692Z,67.39
2022-11-29T19:26:13.839Z,67.55
2022-11-29T19:28:44.682Z,67.52
2022-11-29T19:31:14.880Z,67.26
2022-11-29T19:33:42.507Z,67.79
2022-11-29T19:36:12.104Z,67.82
2022-11-29T19:38:39.519Z,67.73
2022-11-29T19:41:09.764Z,67.64
2022-11-29T19:43:36.480Z,67.75
2022-11-29T19:46:13.860Z,67.69
2022-11-29T19:48:40.396Z,67.62
2022-11-29T19:51:08.327Z,67.84
2022-11-29T19:53:35.457Z,67.84
2022-11-29T19:56:10.436Z,67.76
2022-11-29T19:58:37.068Z,67.77
2022-11-29T20:01:05.758Z,67.65
2022-11-29T20:03:32.315Z,67.68
2022-11-29T20:05:58.905Z,67.63
2022-11-29T20:08:25.346Z,67.85
2022-11-29T20:10:52.009Z,67.75
2022-11-29T20:13:18.381Z,67.58
2022-11-29T20:15:44.767Z,67.58
2022-11-29T20:18:12.526Z,67.64
2022-11-29T20:20:38.927Z,67.38
2022-11-29T20:23:05.325Z,67.27
2022-11-29T20:25:31.653Z,67.30
2022-11-29T20:27:58.427Z,67.23
2022-11-29T20:30:25.781Z,67.40
2022-11-29T20:32:52.236Z,67.33
2022-11-29T20:35:19.371Z,66.83
2022-11-29T20:37:45.691Z,66.26
2022-11-29T20:40:19.483Z,66.26
2022-11-29T20:42:57.093Z,65.98
2022-11-29T20:45:24.685Z,66.01
2022-11-29T20:47:56.533Z,65.93
2022-11-29T20:50:28.814Z,65.96
2022-11-29T20:53:16.264Z,66.09
2022-11-29T20:55:47.882Z,66.44
2022-11-29T20:58:14.977Z,66.13
2022-11-29T21:00:41.661Z,65.98
2022-11-29T21:03:08.076Z,66.06
2022-11-29T21:05:37.712Z,66.34
2022-11-29T21:08:04.211Z,66.27
2022-11-29T21:10:30.618Z,66.23
2022-11-29T21:12:57.227Z,66.25
2022-11-29T21:15:24.500Z,66.38
2022-11-29T21:17:51.453Z,66.55
2022-11-29T21:20:24.500Z,66.54
2022-11-29T21:23:18.189Z,66.11
2022-11-29T21:26:13.090Z,66.41
2022-11-29T21:28:47.311Z,66.68
2022-11-29T21:31:17.356Z,66.48
2022-11-29T21:33:43.883Z,66.46
2022-11-29T21:36:11.781Z,66.65
2022-11-29T21:38:38.160Z,66.59
2022-11-29T21:41:04.503Z,66.54
2022-11-29T21:44:04.503Z,66.43
2022-11-29T21:46:17.213Z,66.45
2022-11-29T21:48:44.355Z,66.57
2022-11-29T21:51:11.378Z,66.22
2022-11-29T21:53:41.123Z,66.47
2022-11-29T21:56:09.841Z,66.20
2022-11-29T21:58:38.236Z,66.59
2022-11-29T22:01:17.539Z,66.50
2022-11-29T22:03:44.385Z,66.28
2022-11-29T22:06:20.211Z,66.77
2022-11-29T22:08:47.074Z,66.71
2022-11-29T22:11:16.162Z,66.50
2022-11-29T22:14:02.270Z,66.63
2022-11-29T22:16:30.207Z,66.67
2022-11-29T22:18:56.797Z,66.99
2022-11-29T22:21:23.140Z,67.39
2022-11-29T22:23:49.642Z,67.17
2022-11-29T22:26:15.972Z,67.36
2022-11-29T22:28:42.333Z,67.23
2022-11-29T22:31:10.423Z,67.10
2022-11-29T22:33:37.624Z,67.03
2022-11-29T22:36:04.882Z,67.24
2022-11-29T22:38:31.429Z,67.10
2022-11-29T22:41:06.584Z,67.22
2022-11-29T22:43:33.261Z,67.22
2022-11-29T22:46:13.619Z,67.26
2022-11-29T22:48:41.681Z,67.15
2022-11-29T22:51:11.772Z,67.17
2022-11-29T22:53:40.877Z,66.97
2022-11-29T22:56:09.452Z,67.06
2022-11-29T22:58:36.088Z,66.98
2022-11-29T23:01:22.807Z,67.07
2022-11-29T23:03:56.458Z,67.08
2022-11-29T23:06:31.387Z,66.74
2022-11-29T23:09:00.114Z,66.72
2022-11-29T23:11:29.463Z,66.81
2022-11-29T23:13:56.372Z,67.30
2022-11-29T23:16:26.166Z,66.86
2022-11-29T23:18:53.851Z,66.89
2022-11-29T23:21:41.085Z,67.21
2022-11-29T23:24:07.896Z,67.02
2022-11-29T23:26:40.177Z,67.03
2022-11-29T23:29:11.407Z,67.21
2022-11-29T23:31:39.486Z,67.23
2022-11-29T23:34:06.116Z,66.93
2022-11-29T23:36:33.176Z,67.08
2022-11-29T23:39:00.324Z,66.81
2022-11-29T23:41:26.886Z,66.73
2022-11-29T23:43:53.501Z,66.81
2022-11-29T23:46:22.141Z,67.13
2022-11-29T23:48:49.039Z,67.17
2022-11-29T23:51:16.511Z,67.13
2022-11-29T23:53:42.899Z,67.03
2022-11-29T23:56:15.024Z,67.11
2022-11-29T23:58:42.297Z,66.90
